LUF weather

Luke Air Force Base
Glendale, Arizona, United States

Public forecast

Using degrees Fahrenheit for public forecast. Weather courtesy of forecast.io.

METAR (pilot weather report)

Retrieved 2019/07/17 21:56 UTC (20 minutes ago):

KLUF 172156Z AUTO 27007KT 10SM FEW200 39/16 A2984 RMK AO2 SLP088 T03930162

TAF (pilot weather forecast)

Retrieved 2019/07/17 20:12 UTC (2 hours ago):

TAF KLUF 172005Z 1720/1902 23012KT 9999 SCT130 BKN200 QNH2975INS TEMPO 1722/1802 24012G20KT BECMG 1803/1804 23009KT 9999 FEW100 QNH2983INS BECMG 1820/1821 23012KT 9999 FEW130 QNH2970INS TX42/1722Z TN25/1812Z